sensor_id;sensor_type;location;lat;lon;timestamp;P1;durP1;ratioP1;P2;durP2;ratioP2
22794;SDS011;11564;50.920;11.612;2023-02-25T00:02:24;5.63;;;3.23;;
22794;SDS011;11564;50.920;11.612;2023-02-25T00:04:49;6.33;;;3.10;;
22794;SDS011;11564;50.920;11.612;2023-02-25T00:07:15;9.97;;;3.20;;
22794;SDS011;11564;50.920;11.612;2023-02-25T00:09:40;10.60;;;3.27;;
22794;SDS011;11564;50.920;11.612;2023-02-25T00:12:06;3.73;;;2.83;;
22794;SDS011;11564;50.920;11.612;2023-02-25T00:14:32;7.30;;;2.67;;
22794;SDS011;11564;50.920;11.612;2023-02-25T00:16:57;10.20;;;3.60;;
22794;SDS011;11564;50.920;11.612;2023-02-25T00:19:23;6.40;;;2.30;;
22794;SDS011;11564;50.920;11.612;2023-02-25T00:21:49;6.50;;;2.13;;
22794;SDS011;11564;50.920;11.612;2023-02-25T00:24:15;8.27;;;2.30;;
22794;SDS011;11564;50.920;11.612;2023-02-25T00:26:40;10.33;;;3.20;;
22794;SDS011;11564;50.920;11.612;2023-02-25T00:29:06;4.43;;;2.17;;
22794;SDS011;11564;50.920;11.612;2023-02-25T00:31:31;3.53;;;2.17;;
22794;SDS011;11564;50.920;11.612;2023-02-25T00:33:57;9.00;;;2.53;;
22794;SDS011;11564;50.920;11.612;2023-02-25T00:36:23;2.97;;;2.10;;
22794;SDS011;11564;50.920;11.612;2023-02-25T00:38:51;6.80;;;2.83;;
22794;SDS011;11564;50.920;11.612;2023-02-25T00:41:20;4.33;;;2.30;;
22794;SDS011;11564;50.920;11.612;2023-02-25T00:43:48;7.33;;;2.23;;
22794;SDS011;11564;50.920;11.612;2023-02-25T00:46:24;5.83;;;2.57;;
22794;SDS011;11564;50.920;11.612;2023-02-25T00:48:50;6.00;;;2.90;;
22794;SDS011;11564;50.920;11.612;2023-02-25T00:51:18;8.37;;;2.60;;
22794;SDS011;11564;50.920;11.612;2023-02-25T00:53:45;4.80;;;2.00;;
22794;SDS011;11564;50.920;11.612;2023-02-25T00:56:12;1.97;;;1.87;;
22794;SDS011;11564;50.920;11.612;2023-02-25T00:58:39;10.00;;;2.23;;
22794;SDS011;11564;50.920;11.612;2023-02-25T01:01:14;3.60;;;2.30;;
22794;SDS011;11564;50.920;11.612;2023-02-25T01:03:40;7.07;;;2.20;;
22794;SDS011;11564;50.920;11.612;2023-02-25T01:06:09;3.10;;;1.73;;
22794;SDS011;11564;50.920;11.612;2023-02-25T01:08:35;8.67;;;2.03;;
22794;SDS011;11564;50.920;11.612;2023-02-25T01:11:08;6.10;;;2.20;;
22794;SDS011;11564;50.920;11.612;2023-02-25T01:13:36;8.00;;;1.47;;
22794;SDS011;11564;50.920;11.612;2023-02-25T01:16:01;5.07;;;1.67;;
22794;SDS011;11564;50.920;11.612;2023-02-25T01:18:38;5.77;;;1.40;;
22794;SDS011;11564;50.920;11.612;2023-02-25T01:21:04;8.33;;;2.13;;
22794;SDS011;11564;50.920;11.612;2023-02-25T01:23:30;4.20;;;1.10;;
22794;SDS011;11564;50.920;11.612;2023-02-25T01:25:56;15.03;;;1.90;;
22794;SDS011;11564;50.920;11.612;2023-02-25T01:28:21;6.10;;;1.70;;
22794;SDS011;11564;50.920;11.612;2023-02-25T01:30:47;5.30;;;1.50;;
22794;SDS011;11564;50.920;11.612;2023-02-25T01:33:12;3.80;;;2.00;;
22794;SDS011;11564;50.920;11.612;2023-02-25T01:35:38;6.60;;;1.40;;
22794;SDS011;11564;50.920;11.612;2023-02-25T01:38:03;7.40;;;2.00;;
22794;SDS011;11564;50.920;11.612;2023-02-25T01:40:29;12.17;;;1.90;;
22794;SDS011;11564;50.920;11.612;2023-02-25T01:42:55;8.30;;;2.13;;
22794;SDS011;11564;50.920;11.612;2023-02-25T01:45:22;7.83;;;2.33;;
22794;SDS011;11564;50.920;11.612;2023-02-25T01:47:52;6.73;;;2.00;;
22794;SDS011;11564;50.920;11.612;2023-02-25T01:50:25;7.83;;;2.17;;
22794;SDS011;11564;50.920;11.612;2023-02-25T01:52:56;5.67;;;1.80;;
22794;SDS011;11564;50.920;11.612;2023-02-25T01:55:23;6.03;;;2.90;;
22794;SDS011;11564;50.920;11.612;2023-02-25T01:57:48;13.33;;;2.33;;
22794;SDS011;11564;50.920;11.612;2023-02-25T02:00:14;5.33;;;1.90;;
22794;SDS011;11564;50.920;11.612;2023-02-25T02:02:44;6.00;;;2.13;;
22794;SDS011;11564;50.920;11.612;2023-02-25T02:05:13;11.23;;;2.90;;
22794;SDS011;11564;50.920;11.612;2023-02-25T02:07:39;10.10;;;2.10;;
22794;SDS011;11564;50.920;11.612;2023-02-25T02:10:05;10.70;;;2.40;;
22794;SDS011;11564;50.920;11.612;2023-02-25T02:12:33;10.43;;;2.63;;
22794;SDS011;11564;50.920;11.612;2023-02-25T02:15:02;8.83;;;2.20;;
22794;SDS011;11564;50.920;11.612;2023-02-25T02:17:37;17.03;;;2.27;;
22794;SDS011;11564;50.920;11.612;2023-02-25T02:20:05;6.90;;;2.63;;
22794;SDS011;11564;50.920;11.612;2023-02-25T02:33:41;13.73;;;1.77;;
22794;SDS011;11564;50.920;11.612;2023-02-25T02:36:14;8.90;;;1.87;;
22794;SDS011;11564;50.920;11.612;2023-02-25T02:38:52;8.63;;;2.20;;
22794;SDS011;11564;50.920;11.612;2023-02-25T02:41:40;5.60;;;2.27;;
22794;SDS011;11564;50.920;11.612;2023-02-25T02:44:20;5.70;;;1.70;;
22794;SDS011;11564;50.920;11.612;2023-02-25T02:49:34;4.30;;;1.87;;
22794;SDS011;11564;50.920;11.612;2023-02-25T02:52:08;9.70;;;1.33;;
22794;SDS011;11564;50.920;11.612;2023-02-25T02:54:42;3.50;;;1.43;;
22794;SDS011;11564;50.920;11.612;2023-02-25T02:57:12;10.13;;;2.40;;
22794;SDS011;11564;50.920;11.612;2023-02-25T02:59:41;7.43;;;2.00;;
22794;SDS011;11564;50.920;11.612;2023-02-25T03:02:12;6.87;;;1.47;;
22794;SDS011;11564;50.920;11.612;2023-02-25T03:04:45;6.20;;;1.90;;
22794;SDS011;11564;50.920;11.612;2023-02-25T03:07:13;8.93;;;1.77;;
22794;SDS011;11564;50.920;11.612;2023-02-25T03:09:43;6.37;;;1.33;;
22794;SDS011;11564;50.920;11.612;2023-02-25T03:12:14;7.57;;;2.00;;
22794;SDS011;11564;50.920;11.612;2023-02-25T03:14:39;2.77;;;1.80;;
22794;SDS011;11564;50.920;11.612;2023-02-25T03:17:10;12.07;;;1.87;;
22794;SDS011;11564;50.920;11.612;2023-02-25T03:22:38;10.03;;;3.07;;
22794;SDS011;11564;50.920;11.612;2023-02-25T03:25:08;7.93;;;1.67;;
22794;SDS011;11564;50.920;11.612;2023-02-25T03:27:47;8.60;;;1.77;;
22794;SDS011;11564;50.920;11.612;2023-02-25T03:30:34;4.27;;;1.70;;
22794;SDS011;11564;50.920;11.612;2023-02-25T03:33:10;8.20;;;1.50;;
22794;SDS011;11564;50.920;11.612;2023-02-25T03:35:42;10.60;;;1.63;;
22794;SDS011;11564;50.920;11.612;2023-02-25T03:38:11;15.53;;;2.10;;
22794;SDS011;11564;50.920;11.612;2023-02-25T03:40:41;7.73;;;2.10;;
22794;SDS011;11564;50.920;11.612;2023-02-25T03:43:12;9.10;;;1.57;;
22794;SDS011;11564;50.920;11.612;2023-02-25T03:45:40;4.80;;;1.60;;
22794;SDS011;11564;50.920;11.612;2023-02-25T03:48:08;3.63;;;1.90;;
22794;SDS011;11564;50.920;11.612;2023-02-25T03:50:39;9.87;;;2.00;;
22794;SDS011;11564;50.920;11.612;2023-02-25T03:53:09;3.70;;;1.00;;
22794;SDS011;11564;50.920;11.612;2023-02-25T03:55:35;8.73;;;1.50;;
22794;SDS011;11564;50.920;11.612;2023-02-25T03:58:01;7.70;;;1.40;;
22794;SDS011;11564;50.920;11.612;2023-02-25T04:00:30;7.23;;;1.37;;
22794;SDS011;11564;50.920;11.612;2023-02-25T04:02:57;4.30;;;1.47;;
22794;SDS011;11564;50.920;11.612;2023-02-25T04:05:23;7.80;;;1.73;;
22794;SDS011;11564;50.920;11.612;2023-02-25T04:07:53;7.57;;;2.03;;
22794;SDS011;11564;50.920;11.612;2023-02-25T04:10:20;6.90;;;2.10;;
22794;SDS011;11564;50.920;11.612;2023-02-25T04:12:46;8.30;;;2.50;;
22794;SDS011;11564;50.920;11.612;2023-02-25T04:15:14;12.43;;;2.57;;
22794;SDS011;11564;50.920;11.612;2023-02-25T04:17:40;13.60;;;1.80;;
22794;SDS011;11564;50.920;11.612;2023-02-25T04:20:06;8.33;;;1.80;;
22794;SDS011;11564;50.920;11.612;2023-02-25T04:22:33;14.67;;;2.20;;
22794;SDS011;11564;50.920;11.612;2023-02-25T04:24:58;7.63;;;1.80;;
22794;SDS011;11564;50.920;11.612;2023-02-25T04:27:24;9.97;;;1.80;;
22794;SDS011;11564;50.920;11.612;2023-02-25T04:29:51;10.93;;;2.23;;
22794;SDS011;11564;50.920;11.612;2023-02-25T04:32:16;7.13;;;1.77;;
22794;SDS011;11564;50.920;11.612;2023-02-25T04:34:42;8.73;;;2.03;;
22794;SDS011;11564;50.920;11.612;2023-02-25T04:37:08;6.80;;;1.80;;
22794;SDS011;11564;50.920;11.612;2023-02-25T04:39:34;4.73;;;1.63;;
22794;SDS011;11564;50.920;11.612;2023-02-25T04:42:00;6.83;;;1.70;;
22794;SDS011;11564;50.920;11.612;2023-02-25T04:44:26;5.83;;;2.00;;
22794;SDS011;11564;50.920;11.612;2023-02-25T04:46:52;6.67;;;1.77;;
22794;SDS011;11564;50.920;11.612;2023-02-25T04:49:18;3.83;;;1.03;;
22794;SDS011;11564;50.920;11.612;2023-02-25T04:51:46;5.50;;;2.13;;
22794;SDS011;11564;50.920;11.612;2023-02-25T04:54:13;6.87;;;1.80;;
22794;SDS011;11564;50.920;11.612;2023-02-25T04:56:39;10.73;;;1.73;;
22794;SDS011;11564;50.920;11.612;2023-02-25T04:59:05;4.83;;;1.87;;
22794;SDS011;11564;50.920;11.612;2023-02-25T05:01:31;8.40;;;2.00;;
22794;SDS011;11564;50.920;11.612;2023-02-25T05:03:57;15.73;;;1.63;;
22794;SDS011;11564;50.920;11.612;2023-02-25T05:06:25;4.03;;;1.17;;
22794;SDS011;11564;50.920;11.612;2023-02-25T05:08:52;5.00;;;1.10;;
22794;SDS011;11564;50.920;11.612;2023-02-25T05:11:18;5.03;;;1.73;;
22794;SDS011;11564;50.920;11.612;2023-02-25T05:13:45;8.60;;;1.10;;
22794;SDS011;11564;50.920;11.612;2023-02-25T05:16:12;3.43;;;0.93;;
22794;SDS011;11564;50.920;11.612;2023-02-25T05:18:42;8.37;;;1.20;;
22794;SDS011;11564;50.920;11.612;2023-02-25T05:21:17;5.90;;;1.33;;
22794;SDS011;11564;50.920;11.612;2023-02-25T05:23:45;4.40;;;1.30;;
22794;SDS011;11564;50.920;11.612;2023-02-25T05:26:12;4.20;;;1.70;;
22794;SDS011;11564;50.920;11.612;2023-02-25T05:28:38;6.73;;;1.93;;
22794;SDS011;11564;50.920;11.612;2023-02-25T05:31:05;5.20;;;1.47;;
22794;SDS011;11564;50.920;11.612;2023-02-25T05:33:31;7.67;;;1.30;;
22794;SDS011;11564;50.920;11.612;2023-02-25T05:35:57;2.40;;;1.33;;
22794;SDS011;11564;50.920;11.612;2023-02-25T05:38:23;6.23;;;1.53;;
22794;SDS011;11564;50.920;11.612;2023-02-25T05:40:49;5.23;;;1.47;;
22794;SDS011;11564;50.920;11.612;2023-02-25T05:43:15;11.63;;;1.40;;
22794;SDS011;11564;50.920;11.612;2023-02-25T05:45:41;9.07;;;1.10;;
22794;SDS011;11564;50.920;11.612;2023-02-25T05:48:06;8.03;;;1.20;;
22794;SDS011;11564;50.920;11.612;2023-02-25T05:50:32;5.80;;;1.67;;
22794;SDS011;11564;50.920;11.612;2023-02-25T05:53:05;5.50;;;1.23;;
22794;SDS011;11564;50.920;11.612;2023-02-25T05:55:31;1.73;;;0.90;;
22794;SDS011;11564;50.920;11.612;2023-02-25T05:57:57;7.70;;;1.60;;
22794;SDS011;11564;50.920;11.612;2023-02-25T06:00:22;8.47;;;1.10;;
22794;SDS011;11564;50.920;11.612;2023-02-25T06:02:48;9.50;;;1.67;;
22794;SDS011;11564;50.920;11.612;2023-02-25T06:05:13;5.20;;;1.20;;
22794;SDS011;11564;50.920;11.612;2023-02-25T06:07:39;9.60;;;1.10;;
22794;SDS011;11564;50.920;11.612;2023-02-25T06:10:05;9.53;;;2.17;;
22794;SDS011;11564;50.920;11.612;2023-02-25T06:12:31;4.20;;;1.20;;
22794;SDS011;11564;50.920;11.612;2023-02-25T06:14:58;6.77;;;1.70;;
22794;SDS011;11564;50.920;11.612;2023-02-25T06:17:24;14.70;;;1.90;;
22794;SDS011;11564;50.920;11.612;2023-02-25T06:19:50;5.20;;;1.30;;
22794;SDS011;11564;50.920;11.612;2023-02-25T06:22:20;4.07;;;1.20;;
22794;SDS011;11564;50.920;11.612;2023-02-25T06:24:46;4.93;;;2.30;;
22794;SDS011;11564;50.920;11.612;2023-02-25T06:27:13;9.20;;;1.60;;
22794;SDS011;11564;50.920;11.612;2023-02-25T06:29:39;7.80;;;1.67;;
22794;SDS011;11564;50.920;11.612;2023-02-25T06:32:09;3.93;;;1.53;;
22794;SDS011;11564;50.920;11.612;2023-02-25T06:34:36;7.07;;;1.57;;
22794;SDS011;11564;50.920;11.612;2023-02-25T06:37:02;11.00;;;2.10;;
22794;SDS011;11564;50.920;11.612;2023-02-25T06:39:27;8.03;;;1.40;;
22794;SDS011;11564;50.920;11.612;2023-02-25T06:41:53;7.37;;;1.60;;
22794;SDS011;11564;50.920;11.612;2023-02-25T06:44:19;9.50;;;1.90;;
22794;SDS011;11564;50.920;11.612;2023-02-25T06:46:44;8.50;;;2.00;;
22794;SDS011;11564;50.920;11.612;2023-02-25T06:49:10;3.13;;;1.30;;
22794;SDS011;11564;50.920;11.612;2023-02-25T06:51:36;1.60;;;1.13;;
22794;SDS011;11564;50.920;11.612;2023-02-25T06:54:02;7.53;;;1.63;;
22794;SDS011;11564;50.920;11.612;2023-02-25T06:56:28;6.43;;;1.10;;
22794;SDS011;11564;50.920;11.612;2023-02-25T06:58:54;3.57;;;1.07;;
22794;SDS011;11564;50.920;11.612;2023-02-25T07:01:23;10.50;;;1.30;;
22794;SDS011;11564;50.920;11.612;2023-02-25T07:03:50;5.03;;;1.10;;
22794;SDS011;11564;50.920;11.612;2023-02-25T07:06:16;2.30;;;1.07;;
22794;SDS011;11564;50.920;11.612;2023-02-25T07:08:43;2.53;;;1.10;;
22794;SDS011;11564;50.920;11.612;2023-02-25T07:13:41;5.70;;;1.27;;
22794;SDS011;11564;50.920;11.612;2023-02-25T07:16:08;3.03;;;1.23;;
22794;SDS011;11564;50.920;11.612;2023-02-25T07:18:34;2.30;;;0.83;;
22794;SDS011;11564;50.920;11.612;2023-02-25T07:21:00;2.83;;;0.97;;
22794;SDS011;11564;50.920;11.612;2023-02-25T07:23:25;3.17;;;1.13;;
22794;SDS011;11564;50.920;11.612;2023-02-25T07:25:51;6.20;;;1.33;;
22794;SDS011;11564;50.920;11.612;2023-02-25T07:28:17;4.07;;;1.10;;
22794;SDS011;11564;50.920;11.612;2023-02-25T07:30:43;3.10;;;0.90;;
22794;SDS011;11564;50.920;11.612;2023-02-25T07:33:10;10.40;;;1.40;;
22794;SDS011;11564;50.920;11.612;2023-02-25T07:35:36;6.73;;;1.60;;
22794;SDS011;11564;50.920;11.612;2023-02-25T07:38:01;1.67;;;0.90;;
22794;SDS011;11564;50.920;11.612;2023-02-25T07:40:27;2.53;;;0.97;;
22794;SDS011;11564;50.920;11.612;2023-02-25T07:42:53;3.43;;;1.10;;
22794;SDS011;11564;50.920;11.612;2023-02-25T07:45:19;5.77;;;1.10;;
22794;SDS011;11564;50.920;11.612;2023-02-25T07:47:44;1.83;;;0.97;;
22794;SDS011;11564;50.920;11.612;2023-02-25T07:50:10;4.13;;;1.00;;
22794;SDS011;11564;50.920;11.612;2023-02-25T07:52:36;5.03;;;1.10;;
22794;SDS011;11564;50.920;11.612;2023-02-25T07:55:03;2.60;;;1.20;;
22794;SDS011;11564;50.920;11.612;2023-02-25T07:57:29;4.07;;;1.37;;
22794;SDS011;11564;50.920;11.612;2023-02-25T07:59:56;2.63;;;1.20;;
22794;SDS011;11564;50.920;11.612;2023-02-25T08:02:22;4.00;;;1.27;;
22794;SDS011;11564;50.920;11.612;2023-02-25T08:04:49;3.90;;;0.80;;
22794;SDS011;11564;50.920;11.612;2023-02-25T08:07:14;3.73;;;1.07;;
22794;SDS011;11564;50.920;11.612;2023-02-25T08:09:40;2.17;;;1.33;;
22794;SDS011;11564;50.920;11.612;2023-02-25T08:12:07;6.60;;;1.30;;
22794;SDS011;11564;50.920;11.612;2023-02-25T08:14:32;2.40;;;1.20;;
22794;SDS011;11564;50.920;11.612;2023-02-25T08:16:58;3.23;;;1.40;;
22794;SDS011;11564;50.920;11.612;2023-02-25T08:19:25;5.40;;;1.27;;
22794;SDS011;11564;50.920;11.612;2023-02-25T08:21:51;3.23;;;1.50;;
22794;SDS011;11564;50.920;11.612;2023-02-25T08:24:18;7.37;;;2.80;;
22794;SDS011;11564;50.920;11.612;2023-02-25T08:26:45;3.80;;;1.07;;
22794;SDS011;11564;50.920;11.612;2023-02-25T08:29:11;4.33;;;0.80;;
22794;SDS011;11564;50.920;11.612;2023-02-25T08:31:37;5.07;;;2.13;;
22794;SDS011;11564;50.920;11.612;2023-02-25T08:34:02;2.30;;;1.20;;
22794;SDS011;11564;50.920;11.612;2023-02-25T08:36:29;1.93;;;1.30;;
22794;SDS011;11564;50.920;11.612;2023-02-25T08:38:56;5.03;;;1.70;;
22794;SDS011;11564;50.920;11.612;2023-02-25T08:41:24;1.90;;;1.00;;
22794;SDS011;11564;50.920;11.612;2023-02-25T08:43:51;4.03;;;1.33;;
22794;SDS011;11564;50.920;11.612;2023-02-25T08:46:19;3.60;;;1.10;;
22794;SDS011;11564;50.920;11.612;2023-02-25T08:48:47;3.53;;;1.10;;
22794;SDS011;11564;50.920;11.612;2023-02-25T08:51:13;4.60;;;1.03;;
22794;SDS011;11564;50.920;11.612;2023-02-25T08:53:40;2.20;;;0.93;;
22794;SDS011;11564;50.920;11.612;2023-02-25T08:56:06;1.10;;;1.00;;
22794;SDS011;11564;50.920;11.612;2023-02-25T08:58:33;5.13;;;1.30;;
22794;SDS011;11564;50.920;11.612;2023-02-25T09:00:59;1.83;;;0.70;;
22794;SDS011;11564;50.920;11.612;2023-02-25T09:03:25;2.57;;;1.07;;
22794;SDS011;11564;50.920;11.612;2023-02-25T09:05:54;1.00;;;0.90;;
22794;SDS011;11564;50.920;11.612;2023-02-25T09:08:20;2.17;;;1.00;;
22794;SDS011;11564;50.920;11.612;2023-02-25T09:10:46;4.30;;;0.90;;
22794;SDS011;11564;50.920;11.612;2023-02-25T09:13:12;4.20;;;1.00;;
22794;SDS011;11564;50.920;11.612;2023-02-25T09:15:38;2.63;;;0.90;;
22794;SDS011;11564;50.920;11.612;2023-02-25T09:18:04;3.60;;;1.17;;
22794;SDS011;11564;50.920;11.612;2023-02-25T09:20:30;1.07;;;0.90;;
22794;SDS011;11564;50.920;11.612;2023-02-25T09:22:55;2.40;;;0.83;;
22794;SDS011;11564;50.920;11.612;2023-02-25T09:25:23;5.53;;;1.37;;
22794;SDS011;11564;50.920;11.612;2023-02-25T09:27:50;1.57;;;1.03;;
22794;SDS011;11564;50.920;11.612;2023-02-25T09:30:15;1.63;;;1.13;;
22794;SDS011;11564;50.920;11.612;2023-02-25T09:32:41;1.90;;;0.83;;
22794;SDS011;11564;50.920;11.612;2023-02-25T09:35:07;5.67;;;1.30;;
22794;SDS011;11564;50.920;11.612;2023-02-25T09:37:33;1.40;;;0.87;;
22794;SDS011;11564;50.920;11.612;2023-02-25T09:39:59;2.60;;;1.00;;
22794;SDS011;11564;50.920;11.612;2023-02-25T09:45:17;1.60;;;0.97;;
22794;SDS011;11564;50.920;11.612;2023-02-25T09:47:48;2.33;;;1.30;;
22794;SDS011;11564;50.920;11.612;2023-02-25T09:50:24;5.80;;;1.30;;
22794;SDS011;11564;50.920;11.612;2023-02-25T10:00:45;2.70;;;1.20;;
22794;SDS011;11564;50.920;11.612;2023-02-25T10:03:40;1.77;;;1.37;;
22794;SDS011;11564;50.920;11.612;2023-02-25T10:11:48;2.30;;;1.57;;
22794;SDS011;11564;50.920;11.612;2023-02-25T10:14:31;3.97;;;2.17;;
22794;SDS011;11564;50.920;11.612;2023-02-25T10:25:43;2.70;;;2.50;;
22794;SDS011;11564;50.920;11.612;2023-02-25T10:28:17;3.63;;;2.80;;
22794;SDS011;11564;50.920;11.612;2023-02-25T10:33:38;3.30;;;3.10;;
22794;SDS011;11564;50.920;11.612;2023-02-25T10:36:19;4.23;;;2.93;;
22794;SDS011;11564;50.920;11.612;2023-02-25T10:38:49;2.83;;;2.70;;
22794;SDS011;11564;50.920;11.612;2023-02-25T10:41:17;3.20;;;3.00;;
22794;SDS011;11564;50.920;11.612;2023-02-25T10:43:46;4.80;;;2.80;;
22794;SDS011;11564;50.920;11.612;2023-02-25T10:46:32;5.30;;;3.27;;
22794;SDS011;11564;50.920;11.612;2023-02-25T10:49:00;3.57;;;3.27;;
22794;SDS011;11564;50.920;11.612;2023-02-25T10:51:37;3.73;;;2.70;;
22794;SDS011;11564;50.920;11.612;2023-02-25T10:54:04;2.50;;;2.30;;
22794;SDS011;11564;50.920;11.612;2023-02-25T10:56:41;2.27;;;2.07;;
22794;SDS011;11564;50.920;11.612;2023-02-25T11:01:59;2.67;;;1.60;;
22794;SDS011;11564;50.920;11.612;2023-02-25T11:04:33;1.53;;;1.43;;
22794;SDS011;11564;50.920;11.612;2023-02-25T11:07:06;1.80;;;1.70;;
22794;SDS011;11564;50.920;11.612;2023-02-25T11:10:04;1.83;;;1.43;;
22794;SDS011;11564;50.920;11.612;2023-02-25T11:12:45;1.23;;;1.13;;
22794;SDS011;11564;50.920;11.612;2023-02-25T11:15:17;5.63;;;1.70;;
22794;SDS011;11564;50.920;11.612;2023-02-25T11:17:46;1.30;;;1.00;;
22794;SDS011;11564;50.920;11.612;2023-02-25T11:20:25;2.23;;;1.27;;
22794;SDS011;11564;50.920;11.612;2023-02-25T11:22:53;12.77;;;3.60;;
22794;SDS011;11564;50.920;11.612;2023-02-25T11:25:40;1.83;;;1.07;;
22794;SDS011;11564;50.920;11.612;2023-02-25T11:28:16;1.67;;;0.90;;
22794;SDS011;11564;50.920;11.612;2023-02-25T11:30:50;1.50;;;1.00;;
22794;SDS011;11564;50.920;11.612;2023-02-25T11:35:56;1.50;;;1.07;;
22794;SDS011;11564;50.920;11.612;2023-02-25T11:40:56;0.80;;;0.70;;
22794;SDS011;11564;50.920;11.612;2023-02-25T11:43:23;0.70;;;0.70;;
22794;SDS011;11564;50.920;11.612;2023-02-25T11:48:38;2.13;;;0.60;;
22794;SDS011;11564;50.920;11.612;2023-02-25T11:51:37;1.33;;;0.40;;
22794;SDS011;11564;50.920;11.612;2023-02-25T11:54:58;1.07;;;0.70;;
22794;SDS011;11564;50.920;11.612;2023-02-25T12:20:50;0.60;;;0.60;;
22794;SDS011;11564;50.920;11.612;2023-02-25T12:45:43;1.07;;;0.70;;
22794;SDS011;11564;50.920;11.612;2023-02-25T12:51:26;1.30;;;1.10;;
22794;SDS011;11564;50.920;11.612;2023-02-25T12:57:16;0.60;;;0.50;;
22794;SDS011;11564;50.920;11.612;2023-02-25T13:00:06;0.90;;;0.57;;
22794;SDS011;11564;50.920;11.612;2023-02-25T13:14:10;1.27;;;0.60;;
22794;SDS011;11564;50.920;11.612;2023-02-25T13:17:01;0.53;;;0.50;;
22794;SDS011;11564;50.920;11.612;2023-02-25T13:22:28;3.00;;;0.80;;
22794;SDS011;11564;50.920;11.612;2023-02-25T13:30:40;0.70;;;0.60;;
22794;SDS011;11564;50.920;11.612;2023-02-25T13:33:46;2.50;;;0.90;;
22794;SDS011;11564;50.920;11.612;2023-02-25T13:39:02;0.63;;;0.63;;
22794;SDS011;11564;50.920;11.612;2023-02-25T13:53:22;4.13;;;0.90;;
22794;SDS011;11564;50.920;11.612;2023-02-25T14:09:55;2.30;;;0.60;;
22794;SDS011;11564;50.920;11.612;2023-02-25T14:18:40;1.33;;;0.50;;
22794;SDS011;11564;50.920;11.612;2023-02-25T14:21:29;3.13;;;0.50;;
22794;SDS011;11564;50.920;11.612;2023-02-25T14:24:33;0.63;;;0.60;;
22794;SDS011;11564;50.920;11.612;2023-02-25T14:32:42;0.70;;;0.70;;
22794;SDS011;11564;50.920;11.612;2023-02-25T14:38:14;0.50;;;0.50;;
22794;SDS011;11564;50.920;11.612;2023-02-25T14:40:55;0.80;;;0.60;;
22794;SDS011;11564;50.920;11.612;2023-02-25T14:43:36;0.50;;;0.50;;
22794;SDS011;11564;50.920;11.612;2023-02-25T14:51:16;1.10;;;0.60;;
22794;SDS011;11564;50.920;11.612;2023-02-25T14:59:59;0.80;;;0.47;;
22794;SDS011;11564;50.920;11.612;2023-02-25T15:06:04;0.50;;;0.40;;
22794;SDS011;11564;50.920;11.612;2023-02-25T15:22:25;1.17;;;0.60;;
22794;SDS011;11564;50.920;11.612;2023-02-25T15:27:48;0.60;;;0.50;;
22794;SDS011;11564;50.920;11.612;2023-02-25T15:30:21;0.50;;;0.40;;
22794;SDS011;11564;50.920;11.612;2023-02-25T15:32:49;2.53;;;0.93;;
22794;SDS011;11564;50.920;11.612;2023-02-25T15:53:10;1.03;;;0.40;;
22794;SDS011;11564;50.920;11.612;2023-02-25T16:06:00;0.80;;;0.70;;
22794;SDS011;11564;50.920;11.612;2023-02-25T16:08:52;0.40;;;0.40;;
22794;SDS011;11564;50.920;11.612;2023-02-25T16:14:28;2.17;;;0.43;;
22794;SDS011;11564;50.920;11.612;2023-02-25T16:17:02;0.50;;;0.40;;
22794;SDS011;11564;50.920;11.612;2023-02-25T16:19:32;2.00;;;0.60;;
22794;SDS011;11564;50.920;11.612;2023-02-25T16:22:02;1.17;;;0.67;;
22794;SDS011;11564;50.920;11.612;2023-02-25T16:24:36;1.10;;;0.63;;
22794;SDS011;11564;50.920;11.612;2023-02-25T16:27:27;2.50;;;0.97;;
22794;SDS011;11564;50.920;11.612;2023-02-25T16:40:51;3.00;;;0.97;;
22794;SDS011;11564;50.920;11.612;2023-02-25T16:43:19;1.27;;;0.60;;
22794;SDS011;11564;50.920;11.612;2023-02-25T16:46:01;2.20;;;0.70;;
22794;SDS011;11564;50.920;11.612;2023-02-25T16:48:31;2.40;;;0.50;;
22794;SDS011;11564;50.920;11.612;2023-02-25T16:51:10;2.03;;;0.50;;
22794;SDS011;11564;50.920;11.612;2023-02-25T16:53:42;1.20;;;0.70;;
22794;SDS011;11564;50.920;11.612;2023-02-25T16:56:17;0.70;;;0.40;;
22794;SDS011;11564;50.920;11.612;2023-02-25T16:59:05;0.70;;;0.70;;
22794;SDS011;11564;50.920;11.612;2023-02-25T17:04:24;4.00;;;0.50;;
22794;SDS011;11564;50.920;11.612;2023-02-25T17:07:04;2.03;;;0.80;;
22794;SDS011;11564;50.920;11.612;2023-02-25T17:09:31;1.80;;;0.80;;
22794;SDS011;11564;50.920;11.612;2023-02-25T17:11:57;1.10;;;0.60;;
22794;SDS011;11564;50.920;11.612;2023-02-25T17:14:27;1.33;;;0.90;;
22794;SDS011;11564;50.920;11.612;2023-02-25T17:16:54;1.17;;;1.17;;
22794;SDS011;11564;50.920;11.612;2023-02-25T17:19:20;0.90;;;0.80;;
22794;SDS011;11564;50.920;11.612;2023-02-25T17:49:03;1.10;;;0.90;;
22794;SDS011;11564;50.920;11.612;2023-02-25T17:51:41;3.70;;;1.10;;
22794;SDS011;11564;50.920;11.612;2023-02-25T17:56:42;1.00;;;0.70;;
22794;SDS011;11564;50.920;11.612;2023-02-25T18:09:52;1.23;;;1.03;;
22794;SDS011;11564;50.920;11.612;2023-02-25T18:12:25;0.90;;;0.60;;
22794;SDS011;11564;50.920;11.612;2023-02-25T18:15:01;1.13;;;0.80;;
22794;SDS011;11564;50.920;11.612;2023-02-25T18:17:30;1.00;;;0.70;;
22794;SDS011;11564;50.920;11.612;2023-02-25T18:20:01;5.77;;;1.13;;
22794;SDS011;11564;50.920;11.612;2023-02-25T18:22:31;2.73;;;0.70;;
22794;SDS011;11564;50.920;11.612;2023-02-25T18:25:05;1.80;;;0.87;;
22794;SDS011;11564;50.920;11.612;2023-02-25T18:27:51;4.47;;;0.80;;
22794;SDS011;11564;50.920;11.612;2023-02-25T18:30:18;1.27;;;0.80;;
22794;SDS011;11564;50.920;11.612;2023-02-25T18:32:46;3.20;;;0.90;;
22794;SDS011;11564;50.920;11.612;2023-02-25T18:35:12;3.50;;;1.03;;
22794;SDS011;11564;50.920;11.612;2023-02-25T18:37:39;2.93;;;0.80;;
22794;SDS011;11564;50.920;11.612;2023-02-25T18:40:06;3.20;;;1.13;;
22794;SDS011;11564;50.920;11.612;2023-02-25T18:42:38;1.30;;;0.80;;
22794;SDS011;11564;50.920;11.612;2023-02-25T18:45:14;1.73;;;0.70;;
22794;SDS011;11564;50.920;11.612;2023-02-25T18:47:41;2.10;;;1.03;;
22794;SDS011;11564;50.920;11.612;2023-02-25T18:50:07;1.83;;;0.67;;
22794;SDS011;11564;50.920;11.612;2023-02-25T18:52:34;1.10;;;1.00;;
22794;SDS011;11564;50.920;11.612;2023-02-25T18:54:59;6.90;;;1.07;;
22794;SDS011;11564;50.920;11.612;2023-02-25T18:57:25;0.90;;;0.63;;
22794;SDS011;11564;50.920;11.612;2023-02-25T18:59:51;2.60;;;0.80;;
22794;SDS011;11564;50.920;11.612;2023-02-25T19:05:21;2.33;;;1.30;;
22794;SDS011;11564;50.920;11.612;2023-02-25T19:07:49;5.30;;;1.00;;
22794;SDS011;11564;50.920;11.612;2023-02-25T19:10:16;3.00;;;1.60;;
22794;SDS011;11564;50.920;11.612;2023-02-25T19:12:45;2.93;;;1.00;;
22794;SDS011;11564;50.920;11.612;2023-02-25T19:15:14;4.77;;;1.30;;
22794;SDS011;11564;50.920;11.612;2023-02-25T19:17:43;2.50;;;1.53;;
22794;SDS011;11564;50.920;11.612;2023-02-25T19:20:10;3.03;;;1.27;;
22794;SDS011;11564;50.920;11.612;2023-02-25T19:22:41;2.40;;;0.90;;
22794;SDS011;11564;50.920;11.612;2023-02-25T19:25:14;6.00;;;1.20;;
22794;SDS011;11564;50.920;11.612;2023-02-25T19:27:41;1.67;;;0.77;;
22794;SDS011;11564;50.920;11.612;2023-02-25T19:30:10;2.47;;;0.80;;
22794;SDS011;11564;50.920;11.612;2023-02-25T19:32:38;2.80;;;1.20;;
22794;SDS011;11564;50.920;11.612;2023-02-25T19:35:05;2.73;;;0.90;;
22794;SDS011;11564;50.920;11.612;2023-02-25T19:37:34;3.50;;;1.33;;
22794;SDS011;11564;50.920;11.612;2023-02-25T19:40:02;1.00;;;0.80;;
22794;SDS011;11564;50.920;11.612;2023-02-25T19:42:28;3.83;;;1.30;;